sensor_id;sensor_type;location;lat;lon;timestamp;temperature;humidity
49717;DHT22;35609;53.166;7.610;2023-02-28T00:01:19;2.60;99.90
49717;DHT22;35609;53.166;7.610;2023-02-28T00:03:45;2.50;99.90
49717;DHT22;35609;53.166;7.610;2023-02-28T00:06:11;2.30;99.90
49717;DHT22;35609;53.166;7.610;2023-02-28T00:08:37;2.80;99.90
49717;DHT22;35609;53.166;7.610;2023-02-28T00:11:10;2.50;99.90
49717;DHT22;35609;53.166;7.610;2023-02-28T00:13:38;2.70;99.90
49717;DHT22;35609;53.166;7.610;2023-02-28T00:16:06;2.30;99.90
49717;DHT22;35609;53.166;7.610;2023-02-28T00:18:32;2.80;99.90
49717;DHT22;35609;53.166;7.610;2023-02-28T00:20:58;2.30;99.90
49717;DHT22;35609;53.166;7.610;2023-02-28T00:23:25;2.50;99.90
49717;DHT22;35609;53.166;7.610;2023-02-28T00:25:51;2.40;99.90
49717;DHT22;35609;53.166;7.610;2023-02-28T00:28:17;2.40;99.90
49717;DHT22;35609;53.166;7.610;2023-02-28T00:30:43;2.80;99.90
49717;DHT22;35609;53.166;7.610;2023-02-28T00:33:09;2.60;99.90
49717;DHT22;35609;53.166;7.610;2023-02-28T00:35:35;2.40;99.90
49717;DHT22;35609;53.166;7.610;2023-02-28T00:38:00;2.80;99.90
49717;DHT22;35609;53.166;7.610;2023-02-28T00:40:26;2.30;99.90
49717;DHT22;35609;53.166;7.610;2023-02-28T00:42:51;2.70;99.90
49717;DHT22;35609;53.166;7.610;2023-02-28T00:45:17;2.70;99.90
49717;DHT22;35609;53.166;7.610;2023-02-28T00:47:43;2.30;99.90
49717;DHT22;35609;53.166;7.610;2023-02-28T00:50:09;2.80;99.90
49717;DHT22;35609;53.166;7.610;2023-02-28T00:52:35;2.70;99.90
49717;DHT22;35609;53.166;7.610;2023-02-28T00:55:00;2.40;99.90
49717;DHT22;35609;53.166;7.610;2023-02-28T00:57:26;2.40;99.90
49717;DHT22;35609;53.166;7.610;2023-02-28T00:59:52;2.40;99.90
49717;DHT22;35609;53.166;7.610;2023-02-28T01:02:21;2.80;99.90
49717;DHT22;35609;53.166;7.610;2023-02-28T01:04:47;2.30;99.90
49717;DHT22;35609;53.166;7.610;2023-02-28T01:07:12;2.80;99.90
49717;DHT22;35609;53.166;7.610;2023-02-28T01:09:39;2.80;99.90
49717;DHT22;35609;53.166;7.610;2023-02-28T01:12:04;2.40;99.90
49717;DHT22;35609;53.166;7.610;2023-02-28T01:14:30;2.30;99.90
49717;DHT22;35609;53.166;7.610;2023-02-28T01:16:56;2.60;99.90
49717;DHT22;35609;53.166;7.610;2023-02-28T01:19:21;2.80;99.90
49717;DHT22;35609;53.166;7.610;2023-02-28T01:21:47;2.30;99.90
49717;DHT22;35609;53.166;7.610;2023-02-28T01:24:13;2.30;99.90
49717;DHT22;35609;53.166;7.610;2023-02-28T01:26:38;2.20;99.90
49717;DHT22;35609;53.166;7.610;2023-02-28T01:29:04;2.50;99.90
49717;DHT22;35609;53.166;7.610;2023-02-28T01:31:29;2.70;99.90
49717;DHT22;35609;53.166;7.610;2023-02-28T01:33:55;2.80;99.90
49717;DHT22;35609;53.166;7.610;2023-02-28T01:36:22;2.40;99.90
49717;DHT22;35609;53.166;7.610;2023-02-28T01:38:48;2.30;99.90
49717;DHT22;35609;53.166;7.610;2023-02-28T01:41:26;2.30;99.90
49717;DHT22;35609;53.166;7.610;2023-02-28T01:46:33;2.30;99.90
49717;DHT22;35609;53.166;7.610;2023-02-28T01:49:09;2.50;99.90
49717;DHT22;35609;53.166;7.610;2023-02-28T01:51:48;2.40;99.90
49717;DHT22;35609;53.166;7.610;2023-02-28T01:54:22;2.80;99.90
49717;DHT22;35609;53.166;7.610;2023-02-28T01:57:08;2.60;99.90
49717;DHT22;35609;53.166;7.610;2023-02-28T01:59:43;2.30;99.90
49717;DHT22;35609;53.166;7.610;2023-02-28T02:02:19;2.60;99.90
49717;DHT22;35609;53.166;7.610;2023-02-28T02:05:02;2.50;99.90
49717;DHT22;35609;53.166;7.610;2023-02-28T02:07:37;2.40;99.90
49717;DHT22;35609;53.166;7.610;2023-02-28T02:10:06;2.40;99.90
49717;DHT22;35609;53.166;7.610;2023-02-28T02:17:39;2.50;99.90
49717;DHT22;35609;53.166;7.610;2023-02-28T02:25:50;2.40;99.90
49717;DHT22;35609;53.166;7.610;2023-02-28T02:31:41;2.60;99.90
49717;DHT22;35609;53.166;7.610;2023-02-28T02:37:11;2.60;99.90
49717;DHT22;35609;53.166;7.610;2023-02-28T02:39:58;2.30;99.90
49717;DHT22;35609;53.166;7.610;2023-02-28T02:42:36;2.60;99.90
49717;DHT22;35609;53.166;7.610;2023-02-28T02:45:11;2.50;99.90
49717;DHT22;35609;53.166;7.610;2023-02-28T02:47:37;2.40;99.90
49717;DHT22;35609;53.166;7.610;2023-02-28T02:50:12;2.10;99.90
49717;DHT22;35609;53.166;7.610;2023-02-28T02:52:45;2.10;99.90
49717;DHT22;35609;53.166;7.610;2023-02-28T02:55:18;2.40;99.90
49717;DHT22;35609;53.166;7.610;2023-02-28T02:57:54;2.50;99.90
49717;DHT22;35609;53.166;7.610;2023-02-28T03:00:26;2.40;99.90
49717;DHT22;35609;53.166;7.610;2023-02-28T03:02:54;2.00;99.90
49717;DHT22;35609;53.166;7.610;2023-02-28T03:05:46;2.30;99.90
49717;DHT22;35609;53.166;7.610;2023-02-28T03:08:13;2.00;99.90
49717;DHT22;35609;53.166;7.610;2023-02-28T03:10:45;2.30;99.90
49717;DHT22;35609;53.166;7.610;2023-02-28T03:19:06;2.10;99.90
49717;DHT22;35609;53.166;7.610;2023-02-28T03:24:26;2.00;99.90
49717;DHT22;35609;53.166;7.610;2023-02-28T03:27:03;2.30;99.90
49717;DHT22;35609;53.166;7.610;2023-02-28T03:32:08;2.00;99.90
49717;DHT22;35609;53.166;7.610;2023-02-28T03:34:43;2.00;99.90
49717;DHT22;35609;53.166;7.610;2023-02-28T03:37:16;2.00;99.90
49717;DHT22;35609;53.166;7.610;2023-02-28T03:39:59;2.00;99.90
49717;DHT22;35609;53.166;7.610;2023-02-28T03:42:29;2.10;99.90
49717;DHT22;35609;53.166;7.610;2023-02-28T03:44:59;2.30;99.90
49717;DHT22;35609;53.166;7.610;2023-02-28T03:47:41;2.00;99.90
49717;DHT22;35609;53.166;7.610;2023-02-28T03:50:22;2.20;99.90
49717;DHT22;35609;53.166;7.610;2023-02-28T03:53:10;2.10;99.90
49717;DHT22;35609;53.166;7.610;2023-02-28T03:55:46;2.20;99.90
49717;DHT22;35609;53.166;7.610;2023-02-28T04:01:03;1.90;99.90
49717;DHT22;35609;53.166;7.610;2023-02-28T04:03:37;2.00;99.90
49717;DHT22;35609;53.166;7.610;2023-02-28T04:06:03;2.30;99.90
49717;DHT22;35609;53.166;7.610;2023-02-28T04:08:29;1.90;99.90
49717;DHT22;35609;53.166;7.610;2023-02-28T04:11:32;2.00;99.90
49717;DHT22;35609;53.166;7.610;2023-02-28T04:13:58;2.00;99.90
49717;DHT22;35609;53.166;7.610;2023-02-28T04:16:24;2.30;99.90
49717;DHT22;35609;53.166;7.610;2023-02-28T04:18:49;2.00;99.90
49717;DHT22;35609;53.166;7.610;2023-02-28T04:21:15;2.10;99.90
49717;DHT22;35609;53.166;7.610;2023-02-28T04:23:41;1.80;99.90
49717;DHT22;35609;53.166;7.610;2023-02-28T04:26:06;1.80;99.90
49717;DHT22;35609;53.166;7.610;2023-02-28T04:28:32;1.80;99.90
49717;DHT22;35609;53.166;7.610;2023-02-28T04:31:03;1.70;99.90
49717;DHT22;35609;53.166;7.610;2023-02-28T04:33:31;1.80;99.90
49717;DHT22;35609;53.166;7.610;2023-02-28T04:36:05;1.80;99.90
49717;DHT22;35609;53.166;7.610;2023-02-28T04:38:37;2.00;99.90
49717;DHT22;35609;53.166;7.610;2023-02-28T04:41:03;1.90;99.90
49717;DHT22;35609;53.166;7.610;2023-02-28T04:43:30;1.70;99.90
49717;DHT22;35609;53.166;7.610;2023-02-28T04:45:57;1.90;99.90
49717;DHT22;35609;53.166;7.610;2023-02-28T04:48:28;1.80;99.90
49717;DHT22;35609;53.166;7.610;2023-02-28T04:50:54;1.70;99.90
49717;DHT22;35609;53.166;7.610;2023-02-28T04:53:21;2.00;99.90
49717;DHT22;35609;53.166;7.610;2023-02-28T04:55:47;1.80;99.90
49717;DHT22;35609;53.166;7.610;2023-02-28T04:58:13;1.80;99.90
49717;DHT22;35609;53.166;7.610;2023-02-28T05:00:39;1.90;99.90
49717;DHT22;35609;53.166;7.610;2023-02-28T05:03:05;2.00;99.90
49717;DHT22;35609;53.166;7.610;2023-02-28T05:05:31;2.00;99.90
49717;DHT22;35609;53.166;7.610;2023-02-28T05:07:57;1.80;99.90
49717;DHT22;35609;53.166;7.610;2023-02-28T05:10:22;1.90;99.90
49717;DHT22;35609;53.166;7.610;2023-02-28T05:12:48;1.90;99.90
49717;DHT22;35609;53.166;7.610;2023-02-28T05:15:15;2.10;99.90
49717;DHT22;35609;53.166;7.610;2023-02-28T05:17:42;2.10;99.90
49717;DHT22;35609;53.166;7.610;2023-02-28T05:20:08;1.90;99.90
49717;DHT22;35609;53.166;7.610;2023-02-28T05:22:37;2.00;99.90
49717;DHT22;35609;53.166;7.610;2023-02-28T05:25:03;1.90;99.90
49717;DHT22;35609;53.166;7.610;2023-02-28T05:27:30;1.90;99.90
49717;DHT22;35609;53.166;7.610;2023-02-28T05:29:56;1.70;99.90
49717;DHT22;35609;53.166;7.610;2023-02-28T05:32:22;1.60;99.90
49717;DHT22;35609;53.166;7.610;2023-02-28T05:34:48;1.50;99.90
49717;DHT22;35609;53.166;7.610;2023-02-28T05:37:14;1.40;99.90
49717;DHT22;35609;53.166;7.610;2023-02-28T05:39:42;1.50;99.90
49717;DHT22;35609;53.166;7.610;2023-02-28T05:42:08;1.40;99.90
49717;DHT22;35609;53.166;7.610;2023-02-28T05:44:34;1.70;99.90
49717;DHT22;35609;53.166;7.610;2023-02-28T05:47:00;1.60;99.90
49717;DHT22;35609;53.166;7.610;2023-02-28T05:49:26;1.50;99.90
49717;DHT22;35609;53.166;7.610;2023-02-28T05:51:51;1.50;99.90
49717;DHT22;35609;53.166;7.610;2023-02-28T05:54:17;1.40;99.90
49717;DHT22;35609;53.166;7.610;2023-02-28T05:56:42;1.70;99.90
49717;DHT22;35609;53.166;7.610;2023-02-28T05:59:12;1.40;99.90
49717;DHT22;35609;53.166;7.610;2023-02-28T06:01:45;1.60;99.90
49717;DHT22;35609;53.166;7.610;2023-02-28T06:04:16;1.40;99.90
49717;DHT22;35609;53.166;7.610;2023-02-28T06:06:47;1.70;99.90
49717;DHT22;35609;53.166;7.610;2023-02-28T06:09:13;1.50;99.90
49717;DHT22;35609;53.166;7.610;2023-02-28T06:11:39;1.70;99.90
49717;DHT22;35609;53.166;7.610;2023-02-28T06:14:05;1.60;99.90
49717;DHT22;35609;53.166;7.610;2023-02-28T06:16:32;1.50;99.90
49717;DHT22;35609;53.166;7.610;2023-02-28T06:19:00;1.30;99.90
49717;DHT22;35609;53.166;7.610;2023-02-28T06:21:26;1.30;99.90
49717;DHT22;35609;53.166;7.610;2023-02-28T06:23:53;1.70;99.90
49717;DHT22;35609;53.166;7.610;2023-02-28T06:26:19;1.50;99.90
49717;DHT22;35609;53.166;7.610;2023-02-28T06:28:45;1.40;99.90
49717;DHT22;35609;53.166;7.610;2023-02-28T06:31:13;1.40;99.90
49717;DHT22;35609;53.166;7.610;2023-02-28T06:33:39;1.60;99.90
49717;DHT22;35609;53.166;7.610;2023-02-28T06:36:06;1.40;99.90
49717;DHT22;35609;53.166;7.610;2023-02-28T06:38:32;1.80;99.90
49717;DHT22;35609;53.166;7.610;2023-02-28T06:40:59;1.60;99.90
49717;DHT22;35609;53.166;7.610;2023-02-28T06:43:28;1.60;99.90
49717;DHT22;35609;53.166;7.610;2023-02-28T06:45:56;1.70;99.90
49717;DHT22;35609;53.166;7.610;2023-02-28T06:48:22;1.60;99.90
49717;DHT22;35609;53.166;7.610;2023-02-28T06:50:48;1.50;99.90
49717;DHT22;35609;53.166;7.610;2023-02-28T06:53:14;1.50;99.90
49717;DHT22;35609;53.166;7.610;2023-02-28T06:55:40;1.80;99.90
49717;DHT22;35609;53.166;7.610;2023-02-28T06:58:06;1.80;99.90
49717;DHT22;35609;53.166;7.610;2023-02-28T07:00:41;1.80;99.90
49717;DHT22;35609;53.166;7.610;2023-02-28T07:03:07;1.50;99.90
49717;DHT22;35609;53.166;7.610;2023-02-28T07:05:38;1.60;99.90
49717;DHT22;35609;53.166;7.610;2023-02-28T07:08:05;1.40;99.90
49717;DHT22;35609;53.166;7.610;2023-02-28T07:10:32;1.80;99.90
49717;DHT22;35609;53.166;7.610;2023-02-28T07:12:59;1.50;99.90
49717;DHT22;35609;53.166;7.610;2023-02-28T07:15:25;1.60;99.90
49717;DHT22;35609;53.166;7.610;2023-02-28T07:17:50;1.90;99.90
49717;DHT22;35609;53.166;7.610;2023-02-28T07:20:17;1.90;99.90
49717;DHT22;35609;53.166;7.610;2023-02-28T07:22:42;1.60;99.90
49717;DHT22;35609;53.166;7.610;2023-02-28T07:25:08;1.80;99.90
49717;DHT22;35609;53.166;7.610;2023-02-28T07:27:34;2.10;99.90
49717;DHT22;35609;53.166;7.610;2023-02-28T07:30:00;2.20;99.90
49717;DHT22;35609;53.166;7.610;2023-02-28T07:32:29;2.00;99.90
49717;DHT22;35609;53.166;7.610;2023-02-28T07:34:55;2.00;99.90
49717;DHT22;35609;53.166;7.610;2023-02-28T07:37:20;2.40;99.90
49717;DHT22;35609;53.166;7.610;2023-02-28T07:39:46;2.10;99.90
49717;DHT22;35609;53.166;7.610;2023-02-28T07:42:12;2.50;99.90
49717;DHT22;35609;53.166;7.610;2023-02-28T07:44:39;2.50;99.90
49717;DHT22;35609;53.166;7.610;2023-02-28T07:47:09;2.50;99.90
49717;DHT22;35609;53.166;7.610;2023-02-28T07:49:38;2.70;99.90
49717;DHT22;35609;53.166;7.610;2023-02-28T07:52:05;2.70;99.90
49717;DHT22;35609;53.166;7.610;2023-02-28T07:54:31;2.60;99.90
49717;DHT22;35609;53.166;7.610;2023-02-28T07:56:57;2.80;99.90
49717;DHT22;35609;53.166;7.610;2023-02-28T07:59:23;2.80;99.90
49717;DHT22;35609;53.166;7.610;2023-02-28T08:01:48;2.80;99.90
49717;DHT22;35609;53.166;7.610;2023-02-28T08:04:19;2.70;99.90
49717;DHT22;35609;53.166;7.610;2023-02-28T08:06:45;2.80;99.90
49717;DHT22;35609;53.166;7.610;2023-02-28T08:09:11;3.00;99.90
49717;DHT22;35609;53.166;7.610;2023-02-28T08:11:37;3.20;99.90
49717;DHT22;35609;53.166;7.610;2023-02-28T08:14:02;3.20;99.90
49717;DHT22;35609;53.166;7.610;2023-02-28T08:16:28;3.70;99.90
49717;DHT22;35609;53.166;7.610;2023-02-28T08:18:54;3.50;99.90
49717;DHT22;35609;53.166;7.610;2023-02-28T08:21:20;3.90;99.90
49717;DHT22;35609;53.166;7.610;2023-02-28T08:23:50;3.50;99.90
49717;DHT22;35609;53.166;7.610;2023-02-28T08:26:17;3.90;99.90
49717;DHT22;35609;53.166;7.610;2023-02-28T08:28:43;3.70;99.90
49717;DHT22;35609;53.166;7.610;2023-02-28T08:31:11;4.00;99.90
49717;DHT22;35609;53.166;7.610;2023-02-28T08:33:38;4.00;99.90
49717;DHT22;35609;53.166;7.610;2023-02-28T08:36:05;3.90;99.90
49717;DHT22;35609;53.166;7.610;2023-02-28T08:38:30;4.10;99.90
49717;DHT22;35609;53.166;7.610;2023-02-28T08:41:05;4.50;99.90
49717;DHT22;35609;53.166;7.610;2023-02-28T08:43:33;4.60;99.90
49717;DHT22;35609;53.166;7.610;2023-02-28T08:45:59;4.60;99.90
49717;DHT22;35609;53.166;7.610;2023-02-28T08:48:26;4.70;99.90
49717;DHT22;35609;53.166;7.610;2023-02-28T08:51:04;4.60;99.90
49717;DHT22;35609;53.166;7.610;2023-02-28T08:53:30;4.60;99.90
49717;DHT22;35609;53.166;7.610;2023-02-28T08:56:05;4.70;99.90
49717;DHT22;35609;53.166;7.610;2023-02-28T08:58:31;5.10;99.90
49717;DHT22;35609;53.166;7.610;2023-02-28T09:00:57;5.30;99.90
49717;DHT22;35609;53.166;7.610;2023-02-28T09:03:23;5.30;99.90
49717;DHT22;35609;53.166;7.610;2023-02-28T09:06:00;5.40;99.90
49717;DHT22;35609;53.166;7.610;2023-02-28T09:08:27;5.60;99.90
49717;DHT22;35609;53.166;7.610;2023-02-28T09:10:54;6.00;99.90
49717;DHT22;35609;53.166;7.610;2023-02-28T09:13:21;6.20;99.90
49717;DHT22;35609;53.166;7.610;2023-02-28T09:15:47;6.40;99.90
49717;DHT22;35609;53.166;7.610;2023-02-28T09:18:12;6.90;99.90
49717;DHT22;35609;53.166;7.610;2023-02-28T09:20:39;7.00;99.90
49717;DHT22;35609;53.166;7.610;2023-02-28T09:23:06;7.30;99.90
49717;DHT22;35609;53.166;7.610;2023-02-28T09:25:32;7.50;99.90
49717;DHT22;35609;53.166;7.610;2023-02-28T09:27:58;7.50;99.90
49717;DHT22;35609;53.166;7.610;2023-02-28T09:30:23;7.80;99.90
49717;DHT22;35609;53.166;7.610;2023-02-28T09:32:49;7.60;99.90
49717;DHT22;35609;53.166;7.610;2023-02-28T09:35:23;7.70;99.90
49717;DHT22;35609;53.166;7.610;2023-02-28T09:37:50;7.70;99.90
49717;DHT22;35609;53.166;7.610;2023-02-28T09:40:18;7.70;99.90
49717;DHT22;35609;53.166;7.610;2023-02-28T09:42:50;8.00;99.90
49717;DHT22;35609;53.166;7.610;2023-02-28T09:45:30;8.20;99.90
49717;DHT22;35609;53.166;7.610;2023-02-28T09:48:20;8.30;99.90
49717;DHT22;35609;53.166;7.610;2023-02-28T09:50:52;8.60;99.90
49717;DHT22;35609;53.166;7.610;2023-02-28T09:53:33;8.50;99.90
49717;DHT22;35609;53.166;7.610;2023-02-28T09:56:24;8.70;99.90
49717;DHT22;35609;53.166;7.610;2023-02-28T10:04:50;8.90;99.90
49717;DHT22;35609;53.166;7.610;2023-02-28T10:10:20;9.30;99.90
49717;DHT22;35609;53.166;7.610;2023-02-28T10:12:47;9.70;99.90
49717;DHT22;35609;53.166;7.610;2023-02-28T10:15:15;9.80;99.90
49717;DHT22;35609;53.166;7.610;2023-02-28T10:17:43;9.80;99.90
49717;DHT22;35609;53.166;7.610;2023-02-28T10:20:22;9.80;99.90
49717;DHT22;35609;53.166;7.610;2023-02-28T10:25:34;9.50;99.90
49717;DHT22;35609;53.166;7.610;2023-02-28T10:28:15;9.80;99.30
49717;DHT22;35609;53.166;7.610;2023-02-28T10:30:45;9.80;97.80
49717;DHT22;35609;53.166;7.610;2023-02-28T10:35:46;10.30;99.70
49717;DHT22;35609;53.166;7.610;2023-02-28T10:38:21;10.50;98.80
49717;DHT22;35609;53.166;7.610;2023-02-28T10:40:47;10.50;97.20
49717;DHT22;35609;53.166;7.610;2023-02-28T10:45:40;10.90;99.50
49717;DHT22;35609;53.166;7.610;2023-02-28T10:50:51;11.10;95.20
49717;DHT22;35609;53.166;7.610;2023-02-28T11:01:41;10.80;95.50
49717;DHT22;35609;53.166;7.610;2023-02-28T11:06:43;10.30;95.30
49717;DHT22;35609;53.166;7.610;2023-02-28T11:09:30;10.30;95.60
49717;DHT22;35609;53.166;7.610;2023-02-28T11:11:58;10.40;95.90
49717;DHT22;35609;53.166;7.610;2023-02-28T11:14:27;10.30;95.90
49717;DHT22;35609;53.166;7.610;2023-02-28T11:16:54;10.70;95.80
49717;DHT22;35609;53.166;7.610;2023-02-28T11:19:43;11.20;95.20
49717;DHT22;35609;53.166;7.610;2023-02-28T11:22:09;11.70;95.90
49717;DHT22;35609;53.166;7.610;2023-02-28T11:24:45;11.40;92.00
49717;DHT22;35609;53.166;7.610;2023-02-28T11:29:51;9.80;93.00
49717;DHT22;35609;53.166;7.610;2023-02-28T11:32:22;10.20;98.30
49717;DHT22;35609;53.166;7.610;2023-02-28T11:35:10;10.90;98.10
49717;DHT22;35609;53.166;7.610;2023-02-28T11:37:39;10.70;92.90
49717;DHT22;35609;53.166;7.610;2023-02-28T11:40:15;10.90;96.80
49717;DHT22;35609;53.166;7.610;2023-02-28T11:45:45;11.10;94.00
49717;DHT22;35609;53.166;7.610;2023-02-28T11:48:18;11.30;94.60
49717;DHT22;35609;53.166;7.610;2023-02-28T11:53:50;11.10;95.90
49717;DHT22;35609;53.166;7.610;2023-02-28T11:56:44;11.50;93.70
49717;DHT22;35609;53.166;7.610;2023-02-28T12:02:18;11.90;91.60
49717;DHT22;35609;53.166;7.610;2023-02-28T12:07:49;12.30;92.20
49717;DHT22;35609;53.166;7.610;2023-02-28T12:10:28;12.00;92.40
49717;DHT22;35609;53.166;7.610;2023-02-28T12:13:18;12.50;92.60
49717;DHT22;35609;53.166;7.610;2023-02-28T12:21:15;12.70;93.70
49717;DHT22;35609;53.166;7.610;2023-02-28T12:24:17;12.70;94.50
49717;DHT22;35609;53.166;7.610;2023-02-28T12:26:49;12.60;92.90
49717;DHT22;35609;53.166;7.610;2023-02-28T12:29:25;12.80;92.60
49717;DHT22;35609;53.166;7.610;2023-02-28T12:32:13;12.70;93.00
49717;DHT22;35609;53.166;7.610;2023-02-28T12:34:44;12.80;91.90
49717;DHT22;35609;53.166;7.610;2023-02-28T12:37:21;13.10;91.50
49717;DHT22;35609;53.166;7.610;2023-02-28T12:39:51;12.90;92.50
49717;DHT22;35609;53.166;7.610;2023-02-28T12:42:27;12.90;91.70
49717;DHT22;35609;53.166;7.610;2023-02-28T12:45:01;13.20;93.20
49717;DHT22;35609;53.166;7.610;2023-02-28T12:47:27;13.10;90.10
49717;DHT22;35609;53.166;7.610;2023-02-28T12:50:00;12.80;89.90
49717;DHT22;35609;53.166;7.610;2023-02-28T12:52:41;12.20;91.10
49717;DHT22;35609;53.166;7.610;2023-02-28T12:58:07;12.20;92.50
49717;DHT22;35609;53.166;7.610;2023-02-28T13:00:36;12.60;92.40
49717;DHT22;35609;53.166;7.610;2023-02-28T13:03:48;12.90;89.80
49717;DHT22;35609;53.166;7.610;2023-02-28T13:09:14;12.20;91.80
49717;DHT22;35609;53.166;7.610;2023-02-28T13:11:50;12.50;91.60
49717;DHT22;35609;53.166;7.610;2023-02-28T13:14:24;12.40;90.60
49717;DHT22;35609;53.166;7.610;2023-02-28T13:19:32;12.50;92.30
49717;DHT22;35609;53.166;7.610;2023-02-28T13:21:59;12.50;91.60
49717;DHT22;35609;53.166;7.610;2023-02-28T13:29:40;12.40;90.90
49717;DHT22;35609;53.166;7.610;2023-02-28T13:34:34;13.00;91.60
49717;DHT22;35609;53.166;7.610;2023-02-28T13:39:51;13.10;87.00
49717;DHT22;35609;53.166;7.610;2023-02-28T13:47:35;12.60;89.20
49717;DHT22;35609;53.166;7.610;2023-02-28T14:01:22;12.20;88.40
49717;DHT22;35609;53.166;7.610;2023-02-28T14:06:31;11.80;87.90
49717;DHT22;35609;53.166;7.610;2023-02-28T14:09:03;12.00;90.00
49717;DHT22;35609;53.166;7.610;2023-02-28T14:11:41;12.00;89.80
49717;DHT22;35609;53.166;7.610;2023-02-28T14:14:08;11.60;88.00
49717;DHT22;35609;53.166;7.610;2023-02-28T14:16:48;11.50;87.60
49717;DHT22;35609;53.166;7.610;2023-02-28T14:19:28;11.80;90.20
49717;DHT22;35609;53.166;7.610;2023-02-28T14:32:40;11.70;87.90
49717;DHT22;35609;53.166;7.610;2023-02-28T14:38:25;11.40;82.30
49717;DHT22;35609;53.166;7.610;2023-02-28T14:40:54;11.30;85.40
49717;DHT22;35609;53.166;7.610;2023-02-28T14:43:26;11.20;88.10
49717;DHT22;35609;53.166;7.610;2023-02-28T14:45:58;11.20;90.00
49717;DHT22;35609;53.166;7.610;2023-02-28T14:48:24;11.00;89.90
49717;DHT22;35609;53.166;7.610;2023-02-28T14:50:55;10.60;88.30
49717;DHT22;35609;53.166;7.610;2023-02-28T14:53:25;10.70;90.70
49717;DHT22;35609;53.166;7.610;2023-02-28T14:55:51;10.60;90.70
49717;DHT22;35609;53.166;7.610;2023-02-28T14:58:27;10.50;90.40
49717;DHT22;35609;53.166;7.610;2023-02-28T15:00:57;10.40;90.40
49717;DHT22;35609;53.166;7.610;2023-02-28T15:03:31;10.30;90.50
49717;DHT22;35609;53.166;7.610;2023-02-28T15:05:59;9.90;91.20
49717;DHT22;35609;53.166;7.610;2023-02-28T15:08:26;9.80;92.00
49717;DHT22;35609;53.166;7.610;2023-02-28T15:11:26;9.70;91.30
49717;DHT22;35609;53.166;7.610;2023-02-28T15:13:54;9.10;92.20
49717;DHT22;35609;53.166;7.610;2023-02-28T15:16:34;9.00;92.50
49717;DHT22;35609;53.166;7.610;2023-02-28T15:19:06;8.90;91.80
49717;DHT22;35609;53.166;7.610;2023-02-28T15:21:39;8.70;92.40
49717;DHT22;35609;53.166;7.610;2023-02-28T15:26:44;8.50;92.50
49717;DHT22;35609;53.166;7.610;2023-02-28T15:29:20;8.50;93.60
49717;DHT22;35609;53.166;7.610;2023-02-28T15:34:43;8.60;94.00
49717;DHT22;35609;53.166;7.610;2023-02-28T15:38:12;8.40;93.80
49717;DHT22;35609;53.166;7.610;2023-02-28T15:40:17;8.40;93.50
49717;DHT22;35609;53.166;7.610;2023-02-28T15:43:04;8.40;92.40
49717;DHT22;35609;53.166;7.610;2023-02-28T15:45:47;8.40;92.50
49717;DHT22;35609;53.166;7.610;2023-02-28T15:48:26;8.40;92.00
49717;DHT22;35609;53.166;7.610;2023-02-28T15:51:01;8.30;92.30
49717;DHT22;35609;53.166;7.610;2023-02-28T15:53:33;8.30;93.50
49717;DHT22;35609;53.166;7.610;2023-02-28T15:56:21;8.10;92.30
49717;DHT22;35609;53.166;7.610;2023-02-28T15:58:47;8.30;93.00
49717;DHT22;35609;53.166;7.610;2023-02-28T16:01:20;8.50;92.30
49717;DHT22;35609;53.166;7.610;2023-02-28T16:03:50;8.50;92.70
49717;DHT22;35609;53.166;7.610;2023-02-28T16:06:26;8.40;92.20
49717;DHT22;35609;53.166;7.610;2023-02-28T16:08:52;8.50;92.80
49717;DHT22;35609;53.166;7.610;2023-02-28T16:11:19;8.60;92.30
49717;DHT22;35609;53.166;7.610;2023-02-28T16:13:45;8.80;93.30
49717;DHT22;35609;53.166;7.610;2023-02-28T16:16:18;8.80;92.40
49717;DHT22;35609;53.166;7.610;2023-02-28T16:18:44;8.80;92.70
49717;DHT22;35609;53.166;7.610;2023-02-28T16:21:10;8.80;92.80
49717;DHT22;35609;53.166;7.610;2023-02-28T16:23:35;8.70;92.80
49717;DHT22;35609;53.166;7.610;2023-02-28T16:26:03;8.60;92.40
49717;DHT22;35609;53.166;7.610;2023-02-28T16:28:33;8.40;92.40
49717;DHT22;35609;53.166;7.610;2023-02-28T16:31:05;8.10;92.60
49717;DHT22;35609;53.166;7.610;2023-02-28T16:33:32;7.90;93.20
49717;DHT22;35609;53.166;7.610;2023-02-28T16:35:59;7.70;93.60
49717;DHT22;35609;53.166;7.610;2023-02-28T16:38:24;7.30;94.20
49717;DHT22;35609;53.166;7.610;2023-02-28T16:40:51;7.00;94.30
49717;DHT22;35609;53.166;7.610;2023-02-28T16:43:23;6.60;93.90
49717;DHT22;35609;53.166;7.610;2023-02-28T16:45:55;6.40;94.60
49717;DHT22;35609;53.166;7.610;2023-02-28T16:48:21;6.00;94.70
49717;DHT22;35609;53.166;7.610;2023-02-28T16:50:46;5.80;95.20
49717;DHT22;35609;53.166;7.610;2023-02-28T16:53:12;5.50;95.50
49717;DHT22;35609;53.166;7.610;2023-02-28T16:55:38;5.30;96.00
49717;DHT22;35609;53.166;7.610;2023-02-28T16:58:04;5.10;96.00
49717;DHT22;35609;53.166;7.610;2023-02-28T17:00:31;4.90;96.80
49717;DHT22;35609;53.166;7.610;2023-02-28T17:02:57;4.80;96.70
49717;DHT22;35609;53.166;7.610;2023-02-28T17:05:25;4.60;97.30
49717;DHT22;35609;53.166;7.610;2023-02-28T17:07:52;4.40;98.00
49717;DHT22;35609;53.166;7.610;2023-02-28T17:12:45;4.00;98.90
49717;DHT22;35609;53.166;7.610;2023-02-28T17:15:12;3.90;98.70
49717;DHT22;35609;53.166;7.610;2023-02-28T17:17:38;3.70;98.80
49717;DHT22;35609;53.166;7.610;2023-02-28T17:20:05;3.60;99.10
49717;DHT22;35609;53.166;7.610;2023-02-28T17:22:31;3.40;99.90
49717;DHT22;35609;53.166;7.610;2023-02-28T17:24:57;3.20;99.90
49717;DHT22;35609;53.166;7.610;2023-02-28T17:27:24;3.10;99.90
49717;DHT22;35609;53.166;7.610;2023-02-28T17:29:50;3.20;99.90
49717;DHT22;35609;53.166;7.610;2023-02-28T17:32:16;3.10;99.90
49717;DHT22;35609;53.166;7.610;2023-02-28T17:34:42;3.00;99.90
49717;DHT22;35609;53.166;7.610;2023-02-28T17:37:09;2.90;99.90
49717;DHT22;35609;53.166;7.610;2023-02-28T17:39:35;2.80;99.90
49717;DHT22;35609;53.166;7.610;2023-02-28T17:42:00;2.60;99.90
49717;DHT22;35609;53.166;7.610;2023-02-28T17:44:26;2.40;99.90
49717;DHT22;35609;53.166;7.610;2023-02-28T17:46:53;2.20;99.90
49717;DHT22;35609;53.166;7.610;2023-02-28T17:49:19;2.00;99.90
49717;DHT22;35609;53.166;7.610;2023-02-28T17:51:46;1.90;99.90
49717;DHT22;35609;53.166;7.610;2023-02-28T17:54:12;1.80;99.90
49717;DHT22;35609;53.166;7.610;2023-02-28T17:56:40;1.70;99.90
49717;DHT22;35609;53.166;7.610;2023-02-28T17:59:05;1.50;99.90
49717;DHT22;35609;53.166;7.610;2023-02-28T18:01:31;1.40;99.90
49717;DHT22;35609;53.166;7.610;2023-02-28T18:03:57;1.30;99.90
49717;DHT22;35609;53.166;7.610;2023-02-28T18:06:31;1.10;99.90
49717;DHT22;35609;53.166;7.610;2023-02-28T18:08:59;1.20;99.90
49717;DHT22;35609;53.166;7.610;2023-02-28T18:11:24;1.20;99.90
49717;DHT22;35609;53.166;7.610;2023-02-28T18:13:52;1.00;99.90
49717;DHT22;35609;53.166;7.610;2023-02-28T18:16:19;0.90;99.90
49717;DHT22;35609;53.166;7.610;2023-02-28T18:18:46;0.70;99.90
49717;DHT22;35609;53.166;7.610;2023-02-28T18:21:13;0.60;99.90
49717;DHT22;35609;53.166;7.610;2023-02-28T18:23:39;0.50;99.90